Time;durP1;ratioP1;P1;durP2;ratioP2;P2;SDS_P1;SDS_P2;PMS_P1;PMS_P2;Temp;Humidity;BMP_temperature;BMP_pressure;BME280_temperature;BME280_humidity;BME280_pressure;Samples;Min_cycle;Max_cycle;Signal;HPM_P1;HPM_P2
2022/03/16 00:00:03;;;;;;;23.65;15.00;;;6.70;65.50;;;;;;6198240;23;20012;-83
2022/03/16 00:02:28;;;;;;;21.83;15.88;;;6.60;65.40;;;;;;6216882;23;20027;-82
2022/03/16 00:04:55;;;;;;;18.67;14.98;;;6.60;65.30;;;;;;6216515;23;20009;-82
2022/03/16 00:07:22;;;;;;;20.75;15.43;;;6.60;65.20;;;;;;6189857;23;20048;-82
2022/03/16 00:09:47;;;;;;;19.63;15.07;;;6.70;65.20;;;;;;6189951;23;20313;-82
2022/03/16 00:12:14;;;;;;;23.00;15.98;;;6.70;65.20;;;;;;6215938;23;20077;-83
2022/03/16 00:14:40;;;;;;;24.10;15.82;;;6.60;65.00;;;;;;6189829;23;20017;-82
2022/03/16 00:17:06;;;;;;;21.77;15.73;;;6.60;64.90;;;;;;6189490;23;20013;-82
2022/03/16 00:19:32;;;;;;;22.10;15.52;;;6.60;64.90;;;;;;6189814;23;20016;-83
2022/03/16 00:22:00;;;;;;;25.08;17.25;;;6.60;64.80;;;;;;6216801;23;20087;-82
2022/03/16 00:24:26;;;;;;;21.70;16.67;;;6.60;64.80;;;;;;6216445;23;20019;-82
2022/03/16 00:26:51;;;;;;;24.95;17.08;;;6.50;64.80;;;;;;6189380;23;20016;-82
2022/03/16 00:29:17;;;;;;;28.00;18.15;;;6.50;64.90;;;;;;6215966;23;20013;-82
2022/03/16 00:31:43;;;;;;;22.23;16.50;;;6.50;65.00;;;;;;6217595;23;20020;-82
2022/03/16 00:34:09;;;;;;;21.95;16.65;;;6.50;65.30;;;;;;6216991;23;20009;-82
2022/03/16 00:36:34;;;;;;;24.80;16.00;;;6.50;65.30;;;;;;6190313;23;20013;-82
2022/03/16 00:39:00;;;;;;;23.35;16.02;;;6.50;65.40;;;;;;6215835;23;20021;-82
2022/03/16 00:41:25;;;;;;;23.70;16.42;;;6.50;65.40;;;;;;6216339;23;20366;-81
2022/03/16 00:43:53;;;;;;;22.38;16.70;;;6.50;65.40;;;;;;6189641;23;20340;-82
2022/03/16 00:46:18;;;;;;;24.10;17.33;;;6.40;65.30;;;;;;6189293;23;20504;-82
2022/03/16 00:48:44;;;;;;;23.30;17.50;;;6.40;65.30;;;;;;6215974;23;20023;-82
2022/03/16 00:51:10;;;;;;;23.40;16.13;;;6.40;65.30;;;;;;6216644;23;20458;-82
2022/03/16 00:53:39;;;;;;;18.45;13.68;;;6.40;65.30;;;;;;6189414;23;20445;-82
2022/03/16 00:56:05;;;;;;;19.17;14.60;;;6.40;64.90;;;;;;6189260;23;20048;-82
2022/03/16 00:58:31;;;;;;;22.50;15.55;;;6.40;64.70;;;;;;6214735;23;20063;-82
2022/03/16 01:00:58;;;;;;;21.40;14.52;;;6.40;64.60;;;;;;6216556;23;20017;-82
2022/03/16 01:03:23;;;;;;;18.55;13.63;;;6.40;64.60;;;;;;6189156;23;20081;-82
2022/03/16 01:05:49;;;;;;;21.40;14.27;;;6.50;64.60;;;;;;6189611;23;20020;-82
2022/03/16 01:08:15;;;;;;;19.98;15.38;;;6.30;64.50;;;;;;6216161;23;20463;-82
2022/03/16 01:10:40;;;;;;;22.63;15.05;;;6.30;64.30;;;;;;6189512;23;20021;-82
2022/03/16 01:13:07;;;;;;;20.40;14.25;;;6.30;64.00;;;;;;6188783;23;20052;-82
2022/03/16 01:15:32;;;;;;;24.52;17.08;;;6.30;64.20;;;;;;6189320;23;20009;-81
2022/03/16 01:17:58;;;;;;;22.02;15.52;;;6.20;64.10;;;;;;6215936;23;20021;-83
2022/03/16 01:20:24;;;;;;;21.33;14.60;;;6.20;63.90;;;;;;6187836;23;20016;-82
2022/03/16 01:22:50;;;;;;;21.40;14.70;;;6.00;63.60;;;;;;6189153;23;20024;-82
2022/03/16 01:25:15;;;;;;;18.27;14.50;;;6.10;63.80;;;;;;6189042;23;20445;-83
2022/03/16 01:27:41;;;;;;;21.33;16.27;;;6.00;64.00;;;;;;6216272;23;20012;-83
2022/03/16 01:30:07;;;;;;;24.20;16.17;;;6.00;64.20;;;;;;6188829;23;20326;-80
2022/03/16 01:32:33;;;;;;;22.15;15.98;;;5.90;64.10;;;;;;6216313;23;20017;-81
2022/03/16 01:34:59;;;;;;;18.80;13.40;;;5.90;64.00;;;;;;6216411;23;20075;-81
2022/03/16 01:37:25;;;;;;;19.58;13.98;;;6.10;64.30;;;;;;6189500;23;20024;-82
2022/03/16 01:39:50;;;;;;;23.35;15.68;;;5.80;64.40;;;;;;6189197;23;20099;-81
2022/03/16 01:42:16;;;;;;;25.17;17.55;;;5.80;64.60;;;;;;6215822;23;20052;-81
2022/03/16 01:44:47;;;;;;;22.95;16.05;;;5.80;64.90;;;;;;6216175;23;20046;-82
2022/03/16 01:47:15;;;;;;;22.45;14.98;;;5.80;65.20;;;;;;6216139;23;20013;-81
2022/03/16 01:49:41;;;;;;;21.95;15.73;;;5.80;65.60;;;;;;6216301;23;20012;-81
2022/03/16 01:52:08;;;;;;;24.75;17.58;;;5.80;65.30;;;;;;6217938;23;20468;-82
2022/03/16 01:54:35;;;;;;;24.02;14.77;;;5.80;65.40;;;;;;6218022;23;20365;-82
2022/03/16 01:57:01;;;;;;;22.83;16.58;;;5.70;65.50;;;;;;6217942;23;20016;-82
2022/03/16 01:59:27;;;;;;;20.98;14.65;;;5.80;65.60;;;;;;6191052;23;20023;-82
2022/03/16 02:01:52;;;;;;;23.55;14.80;;;5.80;65.70;;;;;;6217427;23;20013;-82
2022/03/16 02:04:18;;;;;;;22.05;15.55;;;5.70;65.60;;;;;;6190637;23;20016;-82
2022/03/16 02:06:44;;;;;;;26.30;16.70;;;5.70;65.50;;;;;;6190869;23;20016;-81
2022/03/16 02:09:09;;;;;;;23.20;15.80;;;5.80;65.60;;;;;;6190671;23;20021;-82
2022/03/16 02:11:35;;;;;;;22.75;16.08;;;5.70;65.50;;;;;;6191071;23;20329;-82
2022/03/16 02:14:01;;;;;;;22.17;15.55;;;5.70;65.50;;;;;;6217026;23;20021;-81
2022/03/16 02:16:27;;;;;;;24.92;15.63;;;5.70;65.50;;;;;;6217418;23;20024;-81
2022/03/16 02:18:52;;;;;;;23.83;16.17;;;5.70;65.40;;;;;;6217263;23;20021;-82
2022/03/16 02:21:20;;;;;;;24.77;15.18;;;5.70;65.30;;;;;;6217516;23;20095;-82
2022/03/16 02:23:45;;;;;;;21.08;14.98;;;5.70;65.30;;;;;;6217601;23;20075;-82
2022/03/16 02:26:12;;;;;;;22.98;15.98;;;5.70;65.10;;;;;;6190046;23;20437;-82
2022/03/16 02:28:38;;;;;;;21.63;15.40;;;5.70;65.00;;;;;;6190799;23;20012;-81
2022/03/16 02:31:05;;;;;;;19.80;14.80;;;5.70;65.00;;;;;;6190928;23;20013;-82
2022/03/16 02:33:31;;;;;;;21.25;15.50;;;5.70;64.90;;;;;;6217582;23;20020;-82
2022/03/16 02:35:56;;;;;;;21.77;14.85;;;5.70;64.90;;;;;;6216968;23;20306;-82
2022/03/16 02:38:22;;;;;;;24.38;16.50;;;5.70;64.90;;;;;;6217475;23;20059;-82
2022/03/16 02:40:48;;;;;;;22.17;16.42;;;5.70;64.80;;;;;;6217481;23;20396;-82
2022/03/16 02:43:13;;;;;;;23.50;16.63;;;5.70;64.80;;;;;;6189548;23;20479;-81
2022/03/16 02:45:39;;;;;;;26.42;17.75;;;5.70;64.80;;;;;;6216835;23;20016;-82
2022/03/16 02:48:05;;;;;;;23.65;17.15;;;5.60;64.80;;;;;;6190105;23;20021;-82
2022/03/16 02:50:31;;;;;;;23.88;16.90;;;5.60;64.70;;;;;;6190838;23;20024;-81
2022/03/16 02:52:57;;;;;;;24.25;16.67;;;5.60;64.70;;;;;;6190528;23;20449;-82
2022/03/16 02:55:23;;;;;;;23.85;17.13;;;5.70;64.50;;;;;;6190193;23;20020;-82
2022/03/16 02:57:49;;;;;;;26.75;18.88;;;5.60;64.40;;;;;;6190310;23;20449;-82
2022/03/16 03:00:15;;;;;;;23.90;17.20;;;5.60;64.50;;;;;;6190505;23;20038;-82
2022/03/16 03:02:41;;;;;;;25.67;18.48;;;5.60;64.50;;;;;;6189890;23;20028;-82
2022/03/16 03:05:07;;;;;;;24.70;17.38;;;5.60;64.70;;;;;;6217181;23;20012;-81
2022/03/16 03:07:33;;;;;;;24.35;18.20;;;5.50;64.80;;;;;;6216436;23;20017;-81
2022/03/16 03:09:59;;;;;;;23.52;17.67;;;5.60;64.70;;;;;;6189938;23;20020;-82
2022/03/16 03:12:25;;;;;;;23.98;17.00;;;5.50;64.40;;;;;;6216973;23;20437;-82
2022/03/16 03:14:50;;;;;;;23.70;18.20;;;5.50;64.30;;;;;;6190667;23;20027;-82
2022/03/16 03:17:16;;;;;;;23.95;18.70;;;5.50;64.20;;;;;;6190255;23;20052;-81
2022/03/16 03:19:43;;;;;;;24.00;17.38;;;5.40;64.20;;;;;;6217263;23;20013;-82
2022/03/16 03:22:09;;;;;;;21.42;16.40;;;5.40;64.30;;;;;;6190517;23;20064;-81
2022/03/16 03:24:35;;;;;;;23.95;18.13;;;5.40;64.30;;;;;;6190161;23;20021;-82
2022/03/16 03:27:01;;;;;;;22.63;16.90;;;5.40;64.10;;;;;;6216932;23;20020;-82
2022/03/16 03:29:26;;;;;;;23.75;17.20;;;5.30;64.00;;;;;;6216836;23;20016;-82
2022/03/16 03:31:52;;;;;;;23.05;16.98;;;5.30;64.20;;;;;;6189950;23;20449;-81
2022/03/16 03:34:18;;;;;;;23.55;17.77;;;5.30;64.40;;;;;;6216882;23;20016;-82
2022/03/16 03:36:44;;;;;;;22.98;16.80;;;5.30;64.60;;;;;;6216914;23;20020;-81
2022/03/16 03:39:10;;;;;;;22.77;17.05;;;5.20;64.70;;;;;;6189579;23;20341;-81
2022/03/16 03:41:35;;;;;;;24.05;17.48;;;5.20;64.80;;;;;;6189396;23;20056;-82
2022/03/16 03:44:01;;;;;;;26.27;19.92;;;5.20;64.90;;;;;;6217187;23;20023;-82
2022/03/16 03:46:27;;;;;;;24.08;17.45;;;5.40;65.30;;;;;;6217036;23;20096;-82
2022/03/16 03:48:53;;;;;;;22.80;17.58;;;5.20;65.30;;;;;;6216434;23;20103;-82
2022/03/16 03:51:19;;;;;;;25.63;19.60;;;5.20;65.20;;;;;;6189954;23;20017;-82
2022/03/16 03:53:44;;;;;;;30.15;20.50;;;5.10;65.10;;;;;;6189658;23;20496;-82
2022/03/16 03:56:10;;;;;;;30.20;20.88;;;5.10;65.10;;;;;;6164916;23;20051;-82
2022/03/16 03:58:37;;;;;;;24.92;19.08;;;5.10;65.10;;;;;;6216106;23;20062;-82
2022/03/16 04:01:03;;;;;;;23.17;17.05;;;5.10;65.20;;;;;;6189298;23;20021;-82
2022/03/16 04:03:29;;;;;;;26.25;18.98;;;5.10;65.30;;;;;;6216823;23;20016;-81
2022/03/16 04:05:55;;;;;;;26.42;18.10;;;5.10;65.40;;;;;;6216453;23;20329;-82
2022/03/16 04:08:20;;;;;;;24.75;17.40;;;5.00;65.30;;;;;;6189722;23;20020;-82
2022/03/16 04:10:46;;;;;;;23.80;17.27;;;5.10;65.50;;;;;;6189389;23;20059;-82
2022/03/16 04:13:12;;;;;;;23.77;17.95;;;5.40;65.70;;;;;;6215944;23;20028;-82
2022/03/16 04:15:37;;;;;;;25.48;18.23;;;5.10;65.50;;;;;;6216351;23;20043;-82
2022/03/16 04:18:03;;;;;;;25.63;19.10;;;5.00;65.40;;;;;;6184808;23;20021;-81
2022/03/16 04:20:29;;;;;;;23.60;17.55;;;5.00;65.40;;;;;;6184880;23;20029;-82
2022/03/16 04:22:54;;;;;;;24.77;18.30;;;5.00;65.30;;;;;;6184889;23;20104;-81
2022/03/16 04:25:20;;;;;;;25.67;17.75;;;5.00;65.20;;;;;;6184097;23;20369;-81
2022/03/16 04:27:45;;;;;;;22.75;17.38;;;5.00;65.20;;;;;;6183982;23;20025;-82
2022/03/16 04:30:12;;;;;;;21.17;16.13;;;5.00;65.10;;;;;;6186526;23;20056;-81
2022/03/16 04:32:37;;;;;;;19.40;15.57;;;5.00;65.00;;;;;;6189288;23;20021;-81
2022/03/16 04:35:03;;;;;;;20.80;16.40;;;5.00;64.90;;;;;;6194296;23;20087;-82
2022/03/16 04:37:29;;;;;;;20.77;15.55;;;5.00;65.00;;;;;;6197041;23;20343;-82
2022/03/16 04:39:54;;;;;;;18.65;15.20;;;4.90;65.10;;;;;;6190964;23;20387;-81
2022/03/16 04:42:20;;;;;;;19.23;14.98;;;4.90;65.10;;;;;;6184424;23;20048;-82
2022/03/16 04:44:46;;;;;;;21.40;15.30;;;4.90;65.10;;;;;;6184695;23;20013;-82
2022/03/16 04:47:11;;;;;;;18.67;14.63;;;4.90;65.00;;;;;;6186419;23;20302;-82
2022/03/16 04:49:37;;;;;;;17.27;14.25;;;5.00;65.10;;;;;;6184570;23;20017;-82
2022/03/16 04:52:03;;;;;;;19.42;14.93;;;4.90;65.00;;;;;;6184395;23;20429;-82
2022/03/16 04:54:29;;;;;;;19.30;15.48;;;5.00;65.10;;;;;;6184721;23;20092;-82
2022/03/16 04:56:56;;;;;;;19.13;14.38;;;4.90;65.10;;;;;;6185818;23;20017;-81
2022/03/16 04:59:22;;;;;;;17.40;14.68;;;4.90;65.10;;;;;;6186185;23;20426;-82
2022/03/16 05:01:47;;;;;;;17.63;14.20;;;4.90;64.90;;;;;;6186172;23;20068;-82
2022/03/16 05:04:13;;;;;;;21.15;15.88;;;4.90;64.90;;;;;;6186575;23;20009;-82
2022/03/16 05:06:39;;;;;;;23.13;16.83;;;4.90;65.00;;;;;;6186331;23;20021;-82
2022/03/16 05:09:05;;;;;;;21.42;17.02;;;4.90;65.20;;;;;;6184248;23;20024;-82
2022/03/16 05:11:30;;;;;;;24.00;18.73;;;4.90;65.30;;;;;;6185489;23;20017;-81
2022/03/16 05:13:57;;;;;;;21.10;16.20;;;4.90;65.30;;;;;;6184579;23;20021;-82
2022/03/16 05:16:22;;;;;;;20.58;15.95;;;4.90;65.40;;;;;;6184145;23;20021;-82
2022/03/16 05:18:48;;;;;;;26.17;18.88;;;4.80;65.60;;;;;;6185789;23;20032;-82
2022/03/16 05:21:14;;;;;;;26.27;19.98;;;4.80;65.70;;;;;;6186229;23;20017;-82
2022/03/16 05:23:40;;;;;;;24.60;19.20;;;4.80;65.90;;;;;;6186675;23;20017;-82
2022/03/16 05:26:06;;;;;;;27.20;19.55;;;4.70;66.00;;;;;;6185567;23;20015;-82
2022/03/16 05:28:32;;;;;;;26.20;19.88;;;4.70;66.30;;;;;;6185632;23;20021;-82
2022/03/16 05:30:58;;;;;;;27.85;21.15;;;4.70;66.60;;;;;;6186123;23;20455;-83
2022/03/16 05:33:24;;;;;;;28.15;20.17;;;4.60;67.00;;;;;;6188029;23;20028;-82
2022/03/16 05:35:51;;;;;;;24.33;18.27;;;4.60;67.20;;;;;;6186356;23;20338;-82
2022/03/16 05:38:16;;;;;;;23.27;17.52;;;4.60;67.60;;;;;;6186046;23;20051;-82
2022/03/16 05:40:43;;;;;;;23.40;18.25;;;4.60;68.00;;;;;;6187847;23;20401;-82
2022/03/16 05:43:10;;;;;;;24.60;18.35;;;4.60;68.20;;;;;;6187659;23;20021;-82
2022/03/16 05:45:36;;;;;;;20.30;15.77;;;4.60;68.30;;;;;;6186144;23;20374;-82
2022/03/16 05:48:03;;;;;;;23.88;18.83;;;4.60;68.40;;;;;;6187995;23;20365;-81
2022/03/16 05:50:29;;;;;;;22.92;18.13;;;4.60;68.50;;;;;;6185981;23;20013;-82
2022/03/16 05:52:56;;;;;;;20.95;16.88;;;4.60;68.60;;;;;;6185864;23;20032;-82
2022/03/16 05:55:21;;;;;;;26.23;19.48;;;4.60;68.80;;;;;;6185818;23;20017;-82
2022/03/16 05:57:49;;;;;;;29.45;20.80;;;4.60;68.80;;;;;;6185860;23;20021;-82
2022/03/16 06:00:16;;;;;;;25.95;20.85;;;4.60;68.80;;;;;;6187453;23;20076;-83
2022/03/16 06:02:46;;;;;;;31.98;22.80;;;4.60;69.30;;;;;;6186062;23;20468;-83
2022/03/16 06:05:13;;;;;;;28.92;22.08;;;4.60;69.40;;;;;;6186000;23;20028;-83
2022/03/16 06:07:39;;;;;;;30.95;23.42;;;4.50;69.50;;;;;;6160790;23;20024;-83
2022/03/16 06:10:14;;;;;;;34.38;25.05;;;4.50;69.80;;;;;;6187633;23;20017;-82
2022/03/16 06:13:09;;;;;;;33.00;24.77;;;4.50;70.30;;;;;;6185910;23;20021;-83
2022/03/16 06:15:42;;;;;;;35.42;25.67;;;4.50;70.80;;;;;;6043807;23;20015;-82
2022/03/16 06:18:08;;;;;;;38.08;25.70;;;4.40;70.90;;;;;;6044009;23;20054;-83
2022/03/16 06:20:35;;;;;;;34.85;25.17;;;4.40;71.10;;;;;;6067523;23;20015;-83
2022/03/16 06:23:02;;;;;;;32.70;23.25;;;4.30;71.30;;;;;;6067622;23;20018;-83
2022/03/16 06:25:28;;;;;;;37.17;28.00;;;4.30;71.40;;;;;;6067356;23;20018;-83
2022/03/16 06:27:53;;;;;;;41.35;28.63;;;4.40;72.00;;;;;;6043505;23;20029;-83
2022/03/16 06:30:20;;;;;;;42.95;29.02;;;4.30;71.90;;;;;;6043020;23;20021;-83
2022/03/16 06:32:47;;;;;;;44.28;31.80;;;4.30;72.10;;;;;;6043580;23;20030;-83
2022/03/16 06:35:14;;;;;;;43.40;30.55;;;4.30;72.60;;;;;;6067181;23;20025;-82
2022/03/16 06:37:40;;;;;;;40.13;29.88;;;4.40;72.90;;;;;;6067200;23;20025;-84
2022/03/16 06:40:06;;;;;;;47.13;33.15;;;4.30;73.00;;;;;;6043689;23;20018;-84
2022/03/16 06:42:32;;;;;;;47.67;34.42;;;4.40;73.30;;;;;;6067209;23;20018;-84
2022/03/16 06:44:58;;;;;;;46.85;32.55;;;4.40;73.50;;;;;;6067375;23;20523;-84
2022/03/16 06:47:23;;;;;;;46.15;32.28;;;4.40;73.80;;;;;;6043183;23;20019;-83
2022/03/16 06:49:49;;;;;;;50.47;33.85;;;4.40;73.90;;;;;;6043314;23;20523;-83
2022/03/16 06:52:15;;;;;;;51.13;34.72;;;4.40;74.00;;;;;;6130810;23;20057;-83
2022/03/16 06:54:40;;;;;;;51.33;36.30;;;4.50;74.30;;;;;;6185505;23;20040;-83
2022/03/16 06:57:06;;;;;;;51.42;36.25;;;4.50;74.60;;;;;;6185594;23;20114;-83
2022/03/16 06:59:32;;;;;;;53.88;36.85;;;4.60;74.80;;;;;;6187294;23;20010;-83
2022/03/16 07:01:57;;;;;;;52.10;36.60;;;4.60;74.90;;;;;;6184478;23;20031;-84
2022/03/16 07:04:23;;;;;;;50.33;35.60;;;4.60;75.20;;;;;;6184959;23;20023;-83
2022/03/16 07:06:50;;;;;;;62.60;38.28;;;4.60;75.20;;;;;;6187062;23;20056;-83
2022/03/16 07:09:16;;;;;;;66.15;39.58;;;4.70;75.40;;;;;;6187075;23;20100;-83
2022/03/16 07:11:42;;;;;;;61.08;40.75;;;4.70;75.70;;;;;;6187367;23;20036;-85
2022/03/16 07:16:52;;;;;;;72.15;44.75;;;4.90;76.00;;;;;;6186735;23;20025;-85
2022/03/16 07:19:18;;;;;;;63.55;40.90;;;4.90;76.00;;;;;;6184623;23;20021;-85
2022/03/16 07:21:43;;;;;;;68.32;42.60;;;4.90;76.30;;;;;;6159744;23;20024;-83
2022/03/16 07:24:09;;;;;;;63.22;41.17;;;5.10;76.40;;;;;;6187217;23;20017;-84
2022/03/16 07:26:35;;;;;;;65.15;41.35;;;5.10;76.60;;;;;;6186921;23;20048;-83
2022/03/16 07:29:00;;;;;;;62.35;40.75;;;5.10;76.60;;;;;;6185504;23;20028;-85
2022/03/16 07:31:26;;;;;;;54.97;38.17;;;5.20;76.70;;;;;;6185005;23;20017;-86
2022/03/16 07:33:52;;;;;;;59.85;40.85;;;5.30;76.80;;;;;;6185256;23;20095;-85
2022/03/16 07:36:17;;;;;;;61.55;39.83;;;5.60;77.00;;;;;;6185137;23;20059;-85
2022/03/16 07:38:43;;;;;;;63.63;40.13;;;5.40;76.90;;;;;;6185288;23;20083;-86
2022/03/16 07:41:11;;;;;;;59.80;39.65;;;5.40;77.00;;;;;;6185077;23;20021;-86
2022/03/16 07:43:37;;;;;;;57.25;40.33;;;5.50;77.00;;;;;;6185402;23;20013;-85
2022/03/16 07:46:03;;;;;;;52.50;37.28;;;5.60;77.30;;;;;;6185057;23;20060;-86
2022/03/16 07:48:29;;;;;;;53.35;37.70;;;5.60;77.30;;;;;;6160138;23;20339;-85
2022/03/16 07:50:55;;;;;;;50.80;35.75;;;5.70;77.20;;;;;;6135742;23;20426;-85
2022/03/16 07:53:20;;;;;;;49.70;36.22;;;5.80;77.30;;;;;;6185422;23;20080;-86
2022/03/16 07:55:47;;;;;;;46.50;33.78;;;6.10;77.90;;;;;;6187167;23;20009;-85
2022/03/16 07:58:14;;;;;;;46.65;34.17;;;6.00;77.50;;;;;;6187558;23;20013;-86
2022/03/16 08:00:39;;;;;;;45.03;33.10;;;6.20;77.60;;;;;;6185719;23;20019;-85
2022/03/16 08:03:05;;;;;;;43.25;30.92;;;6.20;77.60;;;;;;6186300;23;20045;-86
2022/03/16 08:05:31;;;;;;;46.83;31.30;;;6.30;77.80;;;;;;6185212;23;20017;-86
2022/03/16 08:07:57;;;;;;;40.30;30.17;;;6.40;77.60;;;;;;6185254;23;20068;-86
2022/03/16 08:10:23;;;;;;;40.63;30.60;;;6.60;77.60;;;;;;6185779;23;20017;-86
2022/03/16 08:12:49;;;;;;;37.83;27.92;;;6.70;77.60;;;;;;6185948;23;20023;-85
2022/03/16 08:15:15;;;;;;;34.47;27.02;;;6.90;77.50;;;;;;6188449;23;20013;-86
2022/03/16 08:17:41;;;;;;;35.40;25.95;;;7.00;77.20;;;;;;6185642;23;20499;-86
2022/03/16 08:20:07;;;;;;;31.83;25.17;;;7.20;77.10;;;;;;6185309;23;20017;-85
2022/03/16 08:22:35;;;;;;;31.83;24.92;;;7.30;77.00;;;;;;6160383;23;20373;-85
2022/03/16 08:25:06;;;;;;;32.92;24.95;;;7.50;77.00;;;;;;6187043;23;20063;-86
2022/03/16 08:27:32;;;;;;;30.77;24.20;;;7.70;76.10;;;;;;6184828;23;20020;-85
2022/03/16 08:29:57;;;;;;;29.90;23.92;;;7.90;75.60;;;;;;6183898;23;20468;-86
2022/03/16 08:32:23;;;;;;;29.63;24.63;;;8.00;75.00;;;;;;6187104;23;20021;-86
2022/03/16 08:34:50;;;;;;;33.58;24.75;;;8.20;74.50;;;;;;6187212;23;20055;-86
2022/03/16 08:37:17;;;;;;;28.67;23.52;;;8.30;74.20;;;;;;6186218;23;20047;-86
2022/03/16 08:39:44;;;;;;;30.67;21.90;;;8.40;74.00;;;;;;6135774;23;20017;-86
2022/03/16 08:42:11;;;;;;;25.60;20.58;;;8.60;73.50;;;;;;6184910;23;20017;-86
2022/03/16 08:44:37;;;;;;;24.65;20.45;;;8.70;73.00;;;;;;6185130;23;20099;-85
2022/03/16 08:47:03;;;;;;;24.50;20.45;;;8.90;72.10;;;;;;6186217;23;20017;-86
2022/03/16 08:49:29;;;;;;;25.17;19.05;;;9.10;71.60;;;;;;6186157;23;20021;-87
2022/03/16 08:51:59;;;;;;;26.45;20.05;;;9.20;70.50;;;;;;6186140;23;20430;-85
2022/03/16 08:54:28;;;;;;;26.17;19.52;;;9.30;69.80;;;;;;6189055;23;20017;-86
2022/03/16 08:56:53;;;;;;;24.92;18.80;;;9.40;69.60;;;;;;6189991;23;20020;-85
2022/03/16 08:59:23;;;;;;;22.48;18.00;;;9.60;69.70;;;;;;6187012;23;20318;-86
2022/03/16 09:01:49;;;;;;;25.02;17.73;;;9.80;68.80;;;;;;6202682;23;20044;-85
2022/03/16 09:04:15;;;;;;;24.50;18.98;;;9.90;68.30;;;;;;6201988;23;20017;-86
2022/03/16 09:06:41;;;;;;;25.80;19.17;;;10.00;68.00;;;;;;6193455;23;20028;-86
2022/03/16 09:09:07;;;;;;;23.85;17.77;;;10.10;67.60;;;;;;6187806;23;20017;-86
2022/03/16 09:11:34;;;;;;;24.00;17.60;;;10.20;67.60;;;;;;6187207;23;20341;-86
2022/03/16 09:13:59;;;;;;;20.05;16.38;;;10.70;67.20;;;;;;6186979;23;20060;-85
2022/03/16 09:16:25;;;;;;;25.48;17.73;;;10.50;66.50;;;;;;6186524;23;20017;-85
2022/03/16 09:18:52;;;;;;;24.33;17.58;;;10.70;65.80;;;;;;6188792;23;20396;-85
2022/03/16 09:21:18;;;;;;;22.40;16.75;;;10.90;65.10;;;;;;6188711;23;20334;-85
2022/03/16 09:23:44;;;;;;;21.92;15.65;;;11.00;64.90;;;;;;6186494;23;20065;-85
2022/03/16 09:26:09;;;;;;;23.80;16.70;;;11.50;64.20;;;;;;6186553;23;20342;-85
2022/03/16 09:28:35;;;;;;;22.50;16.67;;;11.40;63.10;;;;;;6188502;23;20056;-84
2022/03/16 09:31:01;;;;;;;17.40;13.82;;;11.40;62.40;;;;;;6188672;23;20021;-84
2022/03/16 09:33:30;;;;;;;21.02;15.73;;;11.80;61.80;;;;;;6161706;23;20017;-84
2022/03/16 09:35:56;;;;;;;21.27;15.45;;;11.70;61.20;;;;;;6186577;23;20013;-85
2022/03/16 09:38:22;;;;;;;19.63;14.63;;;11.80;61.00;;;;;;6188345;23;20064;-85
2022/03/16 09:40:57;;;;;;;18.05;14.23;;;11.90;60.00;;;;;;6187985;23;20031;-84
2022/03/16 09:43:23;;;;;;;19.95;15.23;;;12.00;59.40;;;;;;6186152;23;20020;-84
2022/03/16 09:45:56;;;;;;;21.98;16.00;;;12.10;59.20;;;;;;6186085;23;20333;-84
2022/03/16 09:48:23;;;;;;;18.52;14.23;;;12.20;59.00;;;;;;6187568;23;20336;-84
2022/03/16 09:50:54;;;;;;;16.40;12.75;;;12.20;58.90;;;;;;6186171;23;20052;-83
2022/03/16 09:53:22;;;;;;;19.38;13.85;;;12.40;57.80;;;;;;6188973;23;20009;-83
2022/03/16 09:55:48;;;;;;;18.77;14.13;;;12.40;57.60;;;;;;6186221;23;20104;-83
2022/03/16 09:58:14;;;;;;;18.73;13.30;;;12.50;57.60;;;;;;6188120;23;20020;-83
2022/03/16 10:00:40;;;;;;;19.90;14.88;;;12.60;57.30;;;;;;6188144;23;20334;-83
2022/03/16 10:03:06;;;;;;;18.58;13.38;;;12.60;56.80;;;;;;6186140;23;20456;-84
2022/03/16 10:05:32;;;;;;;16.67;12.02;;;12.60;56.80;;;;;;6186183;23;20017;-83
2022/03/16 10:08:05;;;;;;;17.63;13.43;;;12.70;56.00;;;;;;6186198;23;20056;-83
2022/03/16 10:13:18;;;;;;;14.73;12.05;;;12.70;54.70;;;;;;6187781;23;20017;-83
2022/03/16 10:15:44;;;;;;;23.50;12.70;;;12.70;54.30;;;;;;6187896;23;20017;-84
2022/03/16 10:18:14;;;;;;;17.73;13.23;;;12.70;54.90;;;;;;6187438;23;20016;-84
2022/03/16 10:20:40;;;;;;;17.00;11.27;;;12.80;55.20;;;;;;6186004;23;20055;-83
2022/03/16 10:23:10;;;;;;;17.23;12.32;;;12.80;55.10;;;;;;6187709;23;20059;-84
2022/03/16 10:25:51;;;;;;;15.60;12.00;;;12.80;54.50;;;;;;6187308;23;20092;-84
2022/03/16 10:28:22;;;;;;;14.52;11.55;;;12.80;54.50;;;;;;6185686;23;20378;-83
2022/03/16 10:31:08;;;;;;;17.27;12.65;;;12.90;54.30;;;;;;6187986;23;20020;-83
2022/03/16 10:33:53;;;;;;;15.35;10.52;;;12.90;54.10;;;;;;6185893;23;20017;-83
2022/03/16 10:36:26;;;;;;;15.93;11.18;;;12.90;54.20;;;;;;6185923;23;20554;-84
2022/03/16 10:38:53;;;;;;;16.13;12.07;;;12.90;54.40;;;;;;6188088;23;20013;-83
2022/03/16 10:47:17;;;;;;;16.65;11.98;;;13.20;53.70;;;;;;6125495;23;20466;-84
2022/03/16 10:49:45;;;;;;;15.85;11.57;;;13.10;53.40;;;;;;6125600;23;20028;-84
2022/03/16 10:52:15;;;;;;;16.55;12.02;;;13.20;53.80;;;;;;6101150;23;20373;-83
2022/03/16 10:54:42;;;;;;;15.18;11.77;;;13.20;53.50;;;;;;6125635;23;20052;-84
2022/03/16 10:57:13;;;;;;;14.20;11.45;;;13.20;53.40;;;;;;6101020;23;20387;-83
2022/03/16 10:59:42;;;;;;;16.98;11.18;;;13.30;53.80;;;;;;6125543;23;20025;-83
2022/03/16 11:02:13;;;;;;;18.77;12.18;;;13.30;53.30;;;;;;6100996;23;20014;-84
2022/03/16 11:04:44;;;;;;;16.70;11.82;;;13.40;52.80;;;;;;6100752;23;20022;-83
2022/03/16 11:07:10;;;;;;;14.70;11.57;;;13.40;52.90;;;;;;6100617;23;20022;-84
2022/03/16 11:09:37;;;;;;;14.45;11.02;;;13.70;52.90;;;;;;6125387;23;20089;-84
2022/03/16 11:14:49;;;;;;;15.10;11.30;;;13.60;52.80;;;;;;6125247;23;20040;-84
2022/03/16 11:17:16;;;;;;;14.07;11.15;;;13.80;52.30;;;;;;6124697;23;20484;-84
2022/03/16 11:19:44;;;;;;;16.13;11.90;;;13.80;52.20;;;;;;6100782;23;20025;-84
2022/03/16 11:22:27;;;;;;;17.98;11.80;;;13.90;51.90;;;;;;6100587;23;20021;-84
2022/03/16 11:25:10;;;;;;;16.48;12.55;;;14.00;51.50;;;;;;6172972;23;20048;-84
2022/03/16 11:27:42;;;;;;;14.90;11.38;;;14.00;51.60;;;;;;6187314;23;20017;-85
2022/03/16 11:30:13;;;;;;;14.15;10.60;;;14.10;52.30;;;;;;6185276;23;20076;-84
2022/03/16 11:32:44;;;;;;;16.52;11.68;;;14.20;51.70;;;;;;6185377;23;20020;-84
2022/03/16 11:35:15;;;;;;;13.90;10.20;;;14.30;51.20;;;;;;6185386;23;20020;-84
2022/03/16 11:37:51;;;;;;;14.45;9.93;;;14.30;51.10;;;;;;6187133;23;20056;-84
2022/03/16 11:40:23;;;;;;;11.98;9.48;;;14.30;49.50;;;;;;6186877;23;20442;-83
2022/03/16 11:43:04;;;;;;;12.65;8.73;;;14.40;49.20;;;;;;6186620;23;20097;-85
2022/03/16 11:45:41;;;;;;;14.63;10.35;;;14.40;49.30;;;;;;6160372;23;20017;-84
2022/03/16 11:48:31;;;;;;;13.70;10.15;;;14.40;48.90;;;;;;6186977;23;20032;-84
2022/03/16 11:51:11;;;;;;;13.05;9.13;;;14.40;48.60;;;;;;6185048;23;20025;-84
2022/03/16 11:53:51;;;;;;;15.13;9.23;;;14.40;48.90;;;;;;6187038;23;20080;-84
2022/03/16 11:56:36;;;;;;;15.50;9.45;;;14.40;49.10;;;;;;6184869;23;20147;-83
2022/03/16 11:59:16;;;;;;;13.90;9.38;;;14.40;49.00;;;;;;6186452;23;20021;-82
2022/03/16 12:01:50;;;;;;;15.57;10.35;;;14.40;48.20;;;;;;6186954;23;20012;-84
2022/03/16 12:04:29;;;;;;;14.50;11.07;;;14.50;48.90;;;;;;6177977;23;20024;-85
2022/03/16 12:07:02;;;;;;;13.63;10.63;;;14.40;49.30;;;;;;6184831;23;20024;-84
2022/03/16 12:09:47;;;;;;;13.93;10.43;;;14.40;49.40;;;;;;6186857;23;20017;-84
2022/03/16 12:15:12;;;;;;;15.93;11.57;;;14.50;49.70;;;;;;6184864;23;20021;-85
2022/03/16 12:17:42;;;;;;;15.68;10.52;;;14.50;50.10;;;;;;6184592;23;20074;-84
2022/03/16 12:20:21;;;;;;;16.75;10.07;;;14.60;49.00;;;;;;6185182;23;20021;-85
2022/03/16 12:22:58;;;;;;;14.90;9.88;;;14.60;48.70;;;;;;6185446;23;20020;-85
2022/03/16 12:25:26;;;;;;;12.90;9.60;;;14.70;48.60;;;;;;6185126;23;20013;-84
2022/03/16 12:30:44;;;;;;;15.45;10.43;;;14.70;47.60;;;;;;6184989;23;20060;-84
2022/03/16 12:33:22;;;;;;;13.10;9.88;;;14.70;47.90;;;;;;6186852;23;20009;-84
2022/03/16 12:36:11;;;;;;;12.48;9.63;;;14.80;47.60;;;;;;6186213;23;20017;-84
2022/03/16 12:38:42;;;;;;;12.18;9.27;;;14.70;47.80;;;;;;6184379;23;20014;-84
2022/03/16 12:43:56;;;;;;;14.13;9.10;;;14.70;48.60;;;;;;6186686;23;20028;-83
2022/03/16 12:46:37;;;;;;;13.75;10.38;;;14.80;47.90;;;;;;6186796;23;20048;-84
2022/03/16 12:49:11;;;;;;;13.80;10.05;;;14.80;47.40;;;;;;6185247;23;20025;-85
2022/03/16 12:51:51;;;;;;;15.32;10.57;;;14.90;48.00;;;;;;6184800;23;20095;-83
2022/03/16 12:54:23;;;;;;;13.15;10.00;;;14.90;48.10;;;;;;6184767;23;20031;-84
2022/03/16 12:56:50;;;;;;;14.57;10.38;;;14.90;47.80;;;;;;6160030;23;20052;-84
2022/03/16 12:59:29;;;;;;;12.02;9.30;;;14.90;47.00;;;;;;6184881;23;20021;-84